createdAt,value
2019-05-26T00:00:11.548Z,2.80
2019-05-26T00:02:40.919Z,3.20
2019-05-26T00:05:10.506Z,3.17
2019-05-26T00:07:39.881Z,3.22
2019-05-26T00:10:10.629Z,9.86
2019-05-26T00:12:40.095Z,3.75
2019-05-26T00:15:10.547Z,3.64
2019-05-26T00:17:39.914Z,3.52
2019-05-26T00:20:10.289Z,3.52
2019-05-26T00:22:40.036Z,3.22
2019-05-26T00:25:09.841Z,3.05
2019-05-26T00:27:39.205Z,2.95
2019-05-26T00:30:09.715Z,3.58
2019-05-26T00:32:39.320Z,3.45
2019-05-26T00:35:09.495Z,3.05
2019-05-26T00:37:49.353Z,3.25
2019-05-26T00:40:13.694Z,3.36
2019-05-26T00:42:43.066Z,3.65
2019-05-26T00:45:13.180Z,3.33
2019-05-26T00:47:42.618Z,3.02
2019-05-26T00:50:12.994Z,3.15
2019-05-26T00:52:42.450Z,4.00
2019-05-26T00:55:12.437Z,3.00
2019-05-26T00:57:41.894Z,4.08
2019-05-26T01:00:12.424Z,3.65
2019-05-26T01:02:41.933Z,3.67
2019-05-26T01:05:11.848Z,3.65
2019-05-26T01:07:41.721Z,3.40
2019-05-26T01:10:11.523Z,3.55
2019-05-26T01:12:40.901Z,3.77
2019-05-26T01:15:10.992Z,3.95
2019-05-26T01:17:40.366Z,3.83
2019-05-26T01:20:10.743Z,3.85
2019-05-26T01:22:40.101Z,4.08
2019-05-26T01:25:10.583Z,3.82
2019-05-26T01:27:39.947Z,3.77
2019-05-26T01:30:12.495Z,4.10
2019-05-26T01:32:41.862Z,4.10
2019-05-26T01:35:12.769Z,3.47
2019-05-26T01:37:42.781Z,4.08
2019-05-26T01:40:12.225Z,3.62
2019-05-26T01:42:41.605Z,4.10
2019-05-26T01:45:11.509Z,4.37
2019-05-26T01:47:40.880Z,4.33
2019-05-26T01:50:11.091Z,3.80
2019-05-26T01:52:40.654Z,4.12
2019-05-26T01:55:10.025Z,4.42
2019-05-26T01:57:39.399Z,4.22
2019-05-26T02:00:11.838Z,4.94
2019-05-26T02:02:41.204Z,4.40
2019-05-26T02:05:10.693Z,4.28
2019-05-26T02:07:40.126Z,4.37
2019-05-26T02:10:10.243Z,4.85
2019-05-26T02:12:39.615Z,4.67
2019-05-26T02:15:11.184Z,4.62
2019-05-26T02:17:40.851Z,4.30
2019-05-26T02:20:11.858Z,4.35
2019-05-26T02:22:41.241Z,4.10
2019-05-26T02:25:11.817Z,4.20
2019-05-26T02:27:41.196Z,4.30
2019-05-26T02:30:12.400Z,4.80
2019-05-26T02:32:41.775Z,4.33
2019-05-26T02:35:12.160Z,4.42
2019-05-26T02:37:42.740Z,4.80
2019-05-26T02:40:16.115Z,4.37
2019-05-26T02:42:45.467Z,4.65
2019-05-26T02:45:20.118Z,4.33
2019-05-26T02:47:49.450Z,4.28
2019-05-26T02:50:20.029Z,4.53
2019-05-26T02:52:49.417Z,4.62
2019-05-26T02:55:19.488Z,4.83
2019-05-26T02:57:48.863Z,4.45
2019-05-26T03:00:25.724Z,4.67
2019-05-26T03:02:55.254Z,4.90
2019-05-26T03:05:24.672Z,5.03
2019-05-26T03:07:54.727Z,5.22
2019-05-26T03:10:24.122Z,4.70
2019-05-26T03:12:56.010Z,4.72
2019-05-26T03:15:25.475Z,4.78
2019-05-26T03:17:58.620Z,6.53
2019-05-26T03:20:27.980Z,5.50
2019-05-26T03:23:00.436Z,5.15
2019-05-26T03:25:33.650Z,5.67
2019-05-26T03:28:03.021Z,6.03
2019-05-26T03:30:32.408Z,5.45
2019-05-26T03:33:01.782Z,4.97
2019-05-26T03:35:31.178Z,5.73
2019-05-26T03:38:00.543Z,5.83
2019-05-26T03:40:30.281Z,6.15
2019-05-26T03:42:59.651Z,6.00
2019-05-26T03:46:04.308Z,5.87
2019-05-26T03:48:33.661Z,5.42
2019-05-26T03:51:03.053Z,5.85
2019-05-26T03:53:32.430Z,6.15
2019-05-26T03:56:01.805Z,5.85
2019-05-26T03:58:31.171Z,5.65
2019-05-26T04:01:00.821Z,5.05
2019-05-26T04:03:30.194Z,5.45
2019-05-26T04:05:59.561Z,5.67
2019-05-26T04:08:29.380Z,6.00
2019-05-26T04:10:59.011Z,5.70
2019-05-26T04:13:28.372Z,5.35
2019-05-26T04:15:57.806Z,5.85
2019-05-26T04:18:27.461Z,5.67
2019-05-26T04:20:56.837Z,5.65
2019-05-26T04:23:26.236Z,5.42
2019-05-26T04:25:55.599Z,5.97
2019-05-26T04:28:24.974Z,5.53
2019-05-26T04:30:54.637Z,5.55
2019-05-26T04:33:24.003Z,5.92
2019-05-26T04:35:53.367Z,5.37
2019-05-26T04:38:22.754Z,6.15
2019-05-26T04:40:52.126Z,5.30
2019-05-26T04:43:23.048Z,5.47
2019-05-26T04:45:52.440Z,5.47
2019-05-26T04:48:21.807Z,6.03
2019-05-26T04:50:51.191Z,5.90
2019-05-26T04:53:20.847Z,5.87
2019-05-26T04:55:50.242Z,5.97
2019-05-26T04:58:19.620Z,6.10
2019-05-26T05:00:49.010Z,5.30
2019-05-26T05:03:18.377Z,7.22
2019-05-26T05:05:48.008Z,5.92
2019-05-26T05:08:17.403Z,6.58
2019-05-26T05:10:46.777Z,5.60
2019-05-26T05:13:16.170Z,6.45
2019-05-26T05:15:45.563Z,6.20
2019-05-26T05:18:14.933Z,6.58
2019-05-26T05:20:44.303Z,6.17
2019-05-26T05:23:13.699Z,5.62
2019-05-26T05:25:43.337Z,6.97
2019-05-26T05:28:12.713Z,6.60
2019-05-26T05:30:42.104Z,6.28
2019-05-26T05:33:11.474Z,6.50
2019-05-26T05:35:40.868Z,6.45
2019-05-26T05:38:10.266Z,6.72
2019-05-26T05:40:39.642Z,6.53
2019-05-26T05:43:09.013Z,6.45
2019-05-26T05:45:39.282Z,7.05
2019-05-26T05:48:08.653Z,7.20
2019-05-26T05:50:39.252Z,6.45
2019-05-26T05:53:08.899Z,7.00
2019-05-26T05:55:38.262Z,6.95
2019-05-26T05:58:07.625Z,6.40
2019-05-26T06:00:37.037Z,6.33
2019-05-26T06:03:06.398Z,6.85
2019-05-26T06:05:35.777Z,8.38
2019-05-26T06:08:05.249Z,6.37
2019-05-26T06:10:34.626Z,5.95
2019-05-26T06:13:04.058Z,6.37
2019-05-26T06:15:33.513Z,6.20
2019-05-26T06:18:02.882Z,6.25
2019-05-26T06:20:32.266Z,6.15
2019-05-26T06:23:01.667Z,5.60
2019-05-26T06:25:31.107Z,5.58
2019-05-26T06:28:00.704Z,5.40
2019-05-26T06:30:30.491Z,5.50
2019-05-26T06:32:59.853Z,5.20
2019-05-26T06:35:32.488Z,5.60
2019-05-26T06:38:00.321Z,5.10
2019-05-26T06:40:29.696Z,5.50
2019-05-26T06:42:59.071Z,4.75
2019-05-26T06:45:29.143Z,5.70
2019-05-26T06:47:58.872Z,5.25
2019-05-26T06:50:28.239Z,5.70
2019-05-26T06:52:57.624Z,5.20
2019-05-26T06:55:27.077Z,4.97
2019-05-26T06:57:56.408Z,5.37
2019-05-26T07:00:25.865Z,5.53
2019-05-26T07:02:55.248Z,5.50
2019-05-26T07:05:24.619Z,4.93
2019-05-26T07:07:54.695Z,4.95
2019-05-26T07:10:24.073Z,4.78
2019-05-26T07:12:53.531Z,3.95
2019-05-26T07:15:22.985Z,4.72
2019-05-26T07:17:52.351Z,3.65
2019-05-26T07:20:21.861Z,4.00
2019-05-26T07:22:51.314Z,3.37
2019-05-26T07:25:20.739Z,3.20
2019-05-26T07:27:50.108Z,3.40
2019-05-26T07:30:23.346Z,3.90
2019-05-26T07:32:50.821Z,3.40
2019-05-26T07:35:20.206Z,3.20
2019-05-26T07:37:49.605Z,3.70
2019-05-26T07:40:19.253Z,3.15
2019-05-26T07:42:48.629Z,3.20
2019-05-26T07:45:18.286Z,14.47
2019-05-26T07:47:47.742Z,3.20
2019-05-26T07:50:18.497Z,3.00
2019-05-26T07:52:47.891Z,2.42
2019-05-26T07:55:17.353Z,3.10
2019-05-26T07:57:47.485Z,2.77
2019-05-26T08:00:17.166Z,2.57
2019-05-26T08:02:46.557Z,2.58
2019-05-26T08:05:16.442Z,3.07
2019-05-26T08:07:45.991Z,2.40
2019-05-26T08:10:17.433Z,2.73
2019-05-26T08:12:46.883Z,2.35
2019-05-26T08:15:19.638Z,3.00
2019-05-26T08:17:49.096Z,2.33
2019-05-26T08:20:20.439Z,2.40
2019-05-26T08:22:49.829Z,2.70
2019-05-26T08:25:19.551Z,2.30
2019-05-26T08:27:48.922Z,2.42
2019-05-26T08:30:18.937Z,2.20
2019-05-26T08:32:48.306Z,2.27
2019-05-26T08:35:17.766Z,2.20
2019-05-26T08:37:47.675Z,2.22
2019-05-26T08:40:19.805Z,2.00
2019-05-26T08:42:51.633Z,2.30
2019-05-26T08:45:23.021Z,2.43
2019-05-26T08:47:52.946Z,2.72
2019-05-26T08:50:23.057Z,2.20
2019-05-26T08:52:53.742Z,2.05
2019-05-26T08:55:23.235Z,2.57
2019-05-26T08:57:52.645Z,2.12
2019-05-26T09:00:23.318Z,1.80
2019-05-26T09:02:53.025Z,2.75
2019-05-26T09:05:22.638Z,1.77
2019-05-26T09:07:52.089Z,2.37
2019-05-26T09:10:21.500Z,1.83
2019-05-26T09:13:00.134Z,2.00
2019-05-26T09:15:23.177Z,3.37
2019-05-26T09:17:52.578Z,4.28
2019-05-26T09:20:23.439Z,2.10
2019-05-26T09:22:52.859Z,5.55
2019-05-26T09:25:22.319Z,2.50
2019-05-26T09:27:51.795Z,2.83
2019-05-26T09:30:21.332Z,2.70
2019-05-26T09:32:50.747Z,2.92
2019-05-26T09:35:20.126Z,3.00
2019-05-26T09:37:49.893Z,2.67
2019-05-26T09:40:20.452Z,2.67
2019-05-26T09:42:49.784Z,2.72
2019-05-26T09:45:19.606Z,2.70
2019-05-26T09:47:49.381Z,2.15
2019-05-26T09:50:19.244Z,2.03
2019-05-26T09:52:48.632Z,2.33
2019-05-26T09:55:18.688Z,2.30
2019-05-26T09:57:48.221Z,2.45
2019-05-26T10:00:19.318Z,2.50
2019-05-26T10:02:48.787Z,2.20
2019-05-26T10:05:19.138Z,2.52
2019-05-26T10:07:48.518Z,2.60
2019-05-26T10:10:18.243Z,3.12
2019-05-26T10:12:47.673Z,2.50
2019-05-26T10:15:18.602Z,3.20
2019-05-26T10:17:47.981Z,2.65
2019-05-26T10:20:18.081Z,4.13
2019-05-26T10:22:47.833Z,3.40
2019-05-26T10:25:17.311Z,3.10
2019-05-26T10:27:46.681Z,3.27
2019-05-26T10:30:18.139Z,3.30
2019-05-26T10:32:47.565Z,3.17
2019-05-26T10:35:16.980Z,3.50
2019-05-26T10:37:46.375Z,2.80
2019-05-26T10:40:16.992Z,2.90
2019-05-26T10:42:46.560Z,3.47
2019-05-26T10:45:17.894Z,3.10
2019-05-26T10:47:47.327Z,3.12
2019-05-26T10:50:17.271Z,2.83
2019-05-26T10:52:46.696Z,2.90
2019-05-26T10:55:16.594Z,3.22
2019-05-26T10:57:47.000Z,3.45
2019-05-26T11:00:17.796Z,3.07
2019-05-26T11:02:47.166Z,3.40
2019-05-26T11:05:16.971Z,3.20
2019-05-26T11:07:47.550Z,3.45
2019-05-26T11:10:19.286Z,3.23
2019-05-26T11:12:48.712Z,3.47
2019-05-26T11:15:18.910Z,3.05
2019-05-26T11:17:48.343Z,3.00
2019-05-26T11:20:17.802Z,3.10
2019-05-26T11:22:47.205Z,3.45
2019-05-26T11:25:17.293Z,3.20
2019-05-26T11:27:46.672Z,2.70
2019-05-26T11:30:17.644Z,3.30
2019-05-26T11:32:47.055Z,3.50
2019-05-26T11:35:16.762Z,3.27
2019-05-26T11:37:46.212Z,3.10
2019-05-26T11:40:16.275Z,2.90
2019-05-26T11:42:45.571Z,2.60
2019-05-26T11:45:17.398Z,3.17
2019-05-26T11:47:46.722Z,3.30
2019-05-26T11:50:17.712Z,2.80
2019-05-26T11:52:47.113Z,2.90
2019-05-26T11:55:17.366Z,2.53
2019-05-26T11:57:46.689Z,2.85
2019-05-26T12:00:17.340Z,2.58
2019-05-26T12:02:47.387Z,2.77
2019-05-26T12:05:18.061Z,2.40
2019-05-26T12:07:47.549Z,2.65
2019-05-26T12:10:17.758Z,2.63
2019-05-26T12:12:47.144Z,2.83
2019-05-26T12:15:18.200Z,2.33
2019-05-26T12:17:47.561Z,2.52
2019-05-26T12:20:17.857Z,3.53
2019-05-26T12:22:47.271Z,3.00
2019-05-26T12:25:17.185Z,2.57
2019-05-26T12:27:46.566Z,3.85
2019-05-26T12:30:17.077Z,3.03
2019-05-26T12:32:46.443Z,2.65
2019-05-26T12:35:18.724Z,2.50
2019-05-26T12:37:48.686Z,2.92
2019-05-26T12:40:18.251Z,3.43
2019-05-26T12:42:47.678Z,11.75
2019-05-26T12:45:17.928Z,2.60
2019-05-26T12:47:47.329Z,2.60
2019-05-26T12:50:17.058Z,3.03
2019-05-26T12:52:46.458Z,2.67
2019-05-26T12:55:17.558Z,2.90
2019-05-26T12:57:46.960Z,3.17
2019-05-26T13:00:17.079Z,3.17
2019-05-26T13:02:47.095Z,2.92
2019-05-26T13:05:19.715Z,2.80
2019-05-26T13:07:49.501Z,2.80
2019-05-26T13:10:19.485Z,2.93
2019-05-26T13:12:48.850Z,3.15
2019-05-26T13:15:21.199Z,2.60
2019-05-26T13:17:50.579Z,3.20
2019-05-26T13:20:22.648Z,2.85
2019-05-26T13:22:52.028Z,2.90
2019-05-26T13:25:23.007Z,2.80
2019-05-26T13:27:52.373Z,2.72
2019-05-26T13:30:26.494Z,2.97
2019-05-26T13:32:55.867Z,2.40
2019-05-26T13:35:25.386Z,2.60
2019-05-26T13:37:54.836Z,3.02
2019-05-26T13:40:24.209Z,3.20
2019-05-26T13:42:53.857Z,2.50
2019-05-26T13:45:23.734Z,2.62
2019-05-26T13:47:53.623Z,2.02
2019-05-26T13:50:24.704Z,2.23
2019-05-26T13:52:54.129Z,2.27
2019-05-26T13:55:23.509Z,2.30
2019-05-26T13:57:52.949Z,2.42
2019-05-26T14:00:24.267Z,2.80
2019-05-26T14:02:53.983Z,2.37
2019-05-26T14:05:23.701Z,2.07
2019-05-26T14:07:53.096Z,2.10
2019-05-26T14:10:35.132Z,1.57
2019-05-26T14:13:07.065Z,1.92
2019-05-26T14:15:38.464Z,2.92
2019-05-26T14:18:08.921Z,3.10
2019-05-26T14:20:41.502Z,2.12
2019-05-26T14:23:11.794Z,2.00
2019-05-26T14:25:41.189Z,1.70
2019-05-26T14:28:10.749Z,2.50
2019-05-26T14:30:40.151Z,2.50
2019-05-26T14:33:09.608Z,2.02
2019-05-26T14:35:38.977Z,2.02
2019-05-26T14:38:08.361Z,2.00
2019-05-26T14:40:37.741Z,2.00
2019-05-26T14:43:07.127Z,1.98
2019-05-26T14:45:51.964Z,2.30
2019-05-26T14:48:08.190Z,2.02
2019-05-26T14:50:40.675Z,1.95
2019-05-26T14:53:09.542Z,2.30
2019-05-26T14:55:39.001Z,2.25
2019-05-26T14:58:15.889Z,2.20
2019-05-26T15:00:39.496Z,2.17
2019-05-26T15:03:08.868Z,1.72
2019-05-26T15:05:38.255Z,1.40
2019-05-26T15:08:08.310Z,1.75
2019-05-26T15:10:37.687Z,1.70
2019-05-26T15:13:07.277Z,1.95
2019-05-26T15:15:36.648Z,1.67
2019-05-26T15:18:06.034Z,1.70
2019-05-26T15:20:35.419Z,1.90
2019-05-26T15:23:04.784Z,2.08
2019-05-26T15:25:34.214Z,1.92
2019-05-26T15:28:03.908Z,1.90
2019-05-26T15:30:33.395Z,1.40
2019-05-26T15:33:02.730Z,1.75
2019-05-26T15:35:32.648Z,1.82
2019-05-26T15:38:02.029Z,1.95
2019-05-26T15:40:31.472Z,2.50
2019-05-26T15:43:00.833Z,2.30
2019-05-26T15:45:30.219Z,1.90
2019-05-26T15:47:59.581Z,2.20
2019-05-26T15:50:28.966Z,2.10
2019-05-26T15:52:58.369Z,2.52
2019-05-26T15:55:28.020Z,2.00
2019-05-26T15:57:57.894Z,2.15
2019-05-26T16:00:27.436Z,2.10
2019-05-26T16:02:56.852Z,1.72
2019-05-26T16:05:26.205Z,2.20
2019-05-26T16:07:55.595Z,2.08
2019-05-26T16:10:25.413Z,1.80
2019-05-26T16:12:54.796Z,1.67
2019-05-26T16:15:24.249Z,1.70
2019-05-26T16:17:53.600Z,2.20
2019-05-26T16:20:23.008Z,1.70
2019-05-26T16:22:52.379Z,1.70
2019-05-26T16:25:21.758Z,2.13
2019-05-26T16:27:51.140Z,1.95
2019-05-26T16:30:20.640Z,2.10
2019-05-26T16:32:50.033Z,2.00
2019-05-26T16:35:19.427Z,1.83
2019-05-26T16:37:48.832Z,2.35
2019-05-26T16:40:18.438Z,2.50
2019-05-26T16:42:48.015Z,1.98
2019-05-26T16:45:17.492Z,2.23
2019-05-26T16:47:46.864Z,1.60
2019-05-26T16:50:16.269Z,1.67
2019-05-26T16:52:45.644Z,1.60
2019-05-26T16:55:15.144Z,1.77
2019-05-26T16:57:44.521Z,1.90
2019-05-26T17:00:14.521Z,1.83
2019-05-26T17:02:43.973Z,1.60
2019-05-26T17:05:13.901Z,1.50
2019-05-26T17:07:43.275Z,1.95
2019-05-26T17:10:12.779Z,1.70
2019-05-26T17:12:42.551Z,1.80
2019-05-26T17:15:12.781Z,1.47
2019-05-26T17:17:42.152Z,1.85
2019-05-26T17:20:12.658Z,1.57
2019-05-26T17:22:42.043Z,2.00
2019-05-26T17:25:11.912Z,1.67
2019-05-26T17:27:41.586Z,1.92
2019-05-26T17:30:12.083Z,1.87
2019-05-26T17:32:41.411Z,5.00
2019-05-26T17:35:11.297Z,1.85
2019-05-26T17:37:40.670Z,1.57
2019-05-26T17:40:10.374Z,1.55
2019-05-26T17:42:39.759Z,2.22
2019-05-26T17:45:10.406Z,1.60
2019-05-26T17:47:39.786Z,2.05
2019-05-26T17:50:10.891Z,2.98
2019-05-26T17:52:40.273Z,1.98
2019-05-26T17:55:10.680Z,1.95
2019-05-26T17:57:40.053Z,1.77
2019-05-26T18:00:11.942Z,2.25
2019-05-26T18:02:41.338Z,2.17
2019-05-26T18:05:11.568Z,1.70
2019-05-26T18:07:40.969Z,1.90
2019-05-26T18:10:11.859Z,1.75
2019-05-26T18:12:41.263Z,1.65
2019-05-26T18:15:11.377Z,5.42
2019-05-26T18:17:47.086Z,1.87
2019-05-26T18:20:13.158Z,2.67
2019-05-26T18:22:42.577Z,2.08
2019-05-26T18:25:12.185Z,1.90
2019-05-26T18:27:41.594Z,1.50
2019-05-26T18:30:11.948Z,1.50
2019-05-26T18:32:41.355Z,1.87
2019-05-26T18:35:11.836Z,1.70
2019-05-26T18:37:41.295Z,1.65
2019-05-26T18:40:11.890Z,2.30
2019-05-26T18:42:41.282Z,2.27
2019-05-26T18:45:11.593Z,2.22
2019-05-26T18:47:40.989Z,2.45
2019-05-26T18:50:10.592Z,2.85
2019-05-26T18:52:40.030Z,2.60
2019-05-26T18:55:10.337Z,2.76
2019-05-26T18:57:39.745Z,2.50
2019-05-26T19:00:12.073Z,3.12
2019-05-26T19:02:41.486Z,2.50
2019-05-26T19:05:10.914Z,2.40
2019-05-26T19:07:40.530Z,2.35
2019-05-26T19:10:12.494Z,2.68
2019-05-26T19:12:41.947Z,3.55
2019-05-26T19:15:12.060Z,2.37
2019-05-26T19:17:42.485Z,2.40
2019-05-26T19:20:16.644Z,2.58
2019-05-26T19:22:44.572Z,2.15
2019-05-26T19:25:14.215Z,2.80
2019-05-26T19:27:43.806Z,3.17
2019-05-26T19:30:13.998Z,2.77
2019-05-26T19:32:43.380Z,2.90
2019-05-26T19:35:13.969Z,2.92
2019-05-26T19:37:43.343Z,2.62
2019-05-26T19:40:13.733Z,3.07
2019-05-26T19:42:43.196Z,3.02
2019-05-26T19:45:13.220Z,3.67
2019-05-26T19:47:42.625Z,4.72
2019-05-26T19:50:12.735Z,3.50
2019-05-26T19:52:42.107Z,3.10
2019-05-26T19:55:12.693Z,3.65
2019-05-26T19:57:42.093Z,3.30
2019-05-26T20:00:16.921Z,3.52
2019-05-26T20:02:46.390Z,4.47
2019-05-26T20:05:16.440Z,5.45
2019-05-26T20:07:45.807Z,5.83
2019-05-26T20:10:17.086Z,5.10
2019-05-26T20:12:46.484Z,5.53
2019-05-26T20:15:16.767Z,5.57
2019-05-26T20:17:46.148Z,6.20
2019-05-26T20:20:16.309Z,6.03
2019-05-26T20:22:45.683Z,5.17
2019-05-26T20:25:15.959Z,5.73
2019-05-26T20:27:45.556Z,5.53
2019-05-26T20:30:15.715Z,4.20
2019-05-26T20:32:45.134Z,4.92
2019-05-26T20:35:15.809Z,4.15
2019-05-26T20:37:45.181Z,3.35
2019-05-26T20:40:15.373Z,4.45
2019-05-26T20:42:45.020Z,3.17
2019-05-26T20:45:15.629Z,3.58
2019-05-26T20:47:45.001Z,3.72
2019-05-26T20:50:28.783Z,2.63
2019-05-26T20:52:48.365Z,3.22
2019-05-26T20:55:18.370Z,2.65
2019-05-26T20:57:48.252Z,2.30
2019-05-26T21:00:19.379Z,3.13
2019-05-26T21:02:48.755Z,2.83
2019-05-26T21:05:19.618Z,3.00
2019-05-26T21:07:48.992Z,2.77
2019-05-26T21:10:18.504Z,2.70
2019-05-26T21:12:47.873Z,2.72
2019-05-26T21:15:17.394Z,2.93
2019-05-26T21:17:46.780Z,2.40
2019-05-26T21:20:16.413Z,3.00
2019-05-26T21:22:45.912Z,3.50
2019-05-26T21:25:15.751Z,3.80
2019-05-26T21:27:45.481Z,4.17
2019-05-26T21:30:15.495Z,4.62
2019-05-26T21:32:44.998Z,4.50
2019-05-26T21:35:14.520Z,3.70
2019-05-26T21:37:43.900Z,3.45
2019-05-26T21:40:14.485Z,3.67
2019-05-26T21:42:43.907Z,3.67
2019-05-26T21:45:14.008Z,3.37
2019-05-26T21:47:43.383Z,3.40
2019-05-26T21:50:13.717Z,2.70
2019-05-26T21:52:43.146Z,2.80
2019-05-26T21:55:13.889Z,2.60
2019-05-26T21:57:43.258Z,2.40
2019-05-26T22:00:15.600Z,2.05
2019-05-26T22:02:45.008Z,2.33
2019-05-26T22:05:15.108Z,2.60
2019-05-26T22:07:44.482Z,2.80
2019-05-26T22:10:14.026Z,2.47
2019-05-26T22:12:43.422Z,2.40
2019-05-26T22:15:13.417Z,2.60
2019-05-26T22:17:42.785Z,2.60
2019-05-26T22:20:12.602Z,2.40
2019-05-26T22:22:41.994Z,2.42
2019-05-26T22:25:11.932Z,2.22
2019-05-26T22:27:41.630Z,2.52
2019-05-26T22:30:11.919Z,2.40
2019-05-26T22:32:41.731Z,2.50
2019-05-26T22:35:11.534Z,2.22
2019-05-26T22:37:41.216Z,2.72
2019-05-26T22:40:11.299Z,2.35
2019-05-26T22:42:40.852Z,2.50
2019-05-26T22:45:10.928Z,2.77
2019-05-26T22:47:40.381Z,2.87
2019-05-26T22:50:10.995Z,2.95
2019-05-26T22:52:40.338Z,2.67
2019-05-26T22:55:10.045Z,2.85
2019-05-26T22:57:39.429Z,2.60
2019-05-26T23:00:11.095Z,2.87
2019-05-26T23:02:40.598Z,3.27
2019-05-26T23:05:10.322Z,2.98
2019-05-26T23:07:39.509Z,3.45
2019-05-26T23:10:11.224Z,2.62
2019-05-26T23:12:40.770Z,3.02
2019-05-26T23:15:11.269Z,2.85
2019-05-26T23:17:40.625Z,2.75
2019-05-26T23:20:10.647Z,2.35
2019-05-26T23:25:16.465Z,2.97
2019-05-26T23:27:47.925Z,2.62
2019-05-26T23:30:17.470Z,2.50
2019-05-26T23:32:46.874Z,2.87
2019-05-26T23:35:16.686Z,2.90
2019-05-26T23:37:46.124Z,2.60
2019-05-26T23:40:16.094Z,2.87
2019-05-26T23:42:45.461Z,3.35
2019-05-26T23:45:15.004Z,2.47
2019-05-26T23:47:45.113Z,2.70
2019-05-26T23:50:14.702Z,2.73
2019-05-26T23:52:44.066Z,2.52
2019-05-26T23:55:13.706Z,2.80
2019-05-26T23:57:43.117Z,2.77
